Time;durP1;ratioP1;P1;durP2;ratioP2;P2;SDS_P1;SDS_P2;PMS_P1;PMS_P2;Temp;Humidity;BMP_temperature;BMP_pressure;BME280_temperature;BME280_humidity;BME280_pressure;Samples;Min_cycle;Max_cycle;Signal;HPM_P1;HPM_P2
2021/04/03 00:01:33;;;;;;;8.65;4.90;;;;;;;;;;5067043;28;20120;-71
2021/04/03 00:04:00;;;;;;;7.03;4.47;;;;;;;;;;5066829;28;20139;-70
2021/04/03 00:06:27;;;;;;;9.07;4.97;;;;;;;;;;5067848;28;20076;-72
2021/04/03 00:08:56;;;;;;;7.70;4.72;;;;;;;;;;5066912;28;20477;-69
2021/04/03 00:11:23;;;;;;;8.70;5.50;;;;;;;;;;5063249;28;20129;-69
2021/04/03 00:13:50;;;;;;;9.15;4.90;;;;;;;;;;5067361;28;20123;-70
2021/04/03 00:16:17;;;;;;;11.30;5.47;;;;;;;;;;5069284;28;20071;-72
2021/04/03 00:18:45;;;;;;;8.10;4.63;;;;;;;;;;5070227;28;20166;-70
2021/04/03 00:21:13;;;;;;;7.65;4.68;;;;;;;;;;5071287;28;20044;-70
2021/04/03 00:23:41;;;;;;;10.93;5.18;;;;;;;;;;5069714;28;20091;-70
2021/04/03 00:26:10;;;;;;;10.27;5.05;;;;;;;;;;5071629;28;20044;-71
2021/04/03 00:28:37;;;;;;;8.75;4.88;;;;;;;;;;5070169;28;20131;-72
2021/04/03 00:31:05;;;;;;;10.65;5.18;;;;;;;;;;5071064;28;20044;-73
2021/04/03 00:33:32;;;;;;;8.15;4.45;;;;;;;;;;5070843;28;20129;-69
2021/04/03 00:36:00;;;;;;;8.15;4.95;;;;;;;;;;5070833;28;20048;-70
2021/04/03 00:38:28;;;;;;;10.07;5.47;;;;;;;;;;5069890;28;20132;-73
2021/04/03 00:40:55;;;;;;;9.63;5.45;;;;;;;;;;5070372;28;20481;-70
2021/04/03 00:43:24;;;;;;;8.93;5.25;;;;;;;;;;5070735;28;20123;-70
2021/04/03 00:45:51;;;;;;;10.23;5.50;;;;;;;;;;5070932;28;20148;-69
2021/04/03 00:48:19;;;;;;;10.20;5.38;;;;;;;;;;5070033;28;20629;-70
2021/04/03 00:50:48;;;;;;;8.52;4.95;;;;;;;;;;5065997;28;20124;-69
2021/04/03 00:53:18;;;;;;;9.13;5.63;;;;;;;;;;5070552;28;20080;-73
2021/04/03 00:55:46;;;;;;;10.25;5.63;;;;;;;;;;5069984;28;20067;-72
2021/04/03 00:58:14;;;;;;;10.32;5.13;;;;;;;;;;5059112;28;20136;-71
2021/04/03 01:00:42;;;;;;;15.18;5.65;;;;;;;;;;5069278;28;20136;-69
2021/04/03 01:03:09;;;;;;;9.32;5.90;;;;;;;;;;5062264;28;20575;-70
2021/04/03 01:05:36;;;;;;;9.27;5.30;;;;;;;;;;5068880;28;20055;-72
2021/04/03 01:08:04;;;;;;;10.05;5.75;;;;;;;;;;5073015;28;20144;-70
2021/04/03 01:10:32;;;;;;;10.63;6.45;;;;;;;;;;5070769;28;20068;-72
2021/04/03 01:13:07;;;;;;;11.18;6.35;;;;;;;;;;5071017;28;20412;-71
2021/04/03 01:15:37;;;;;;;9.68;6.05;;;;;;;;;;5071223;28;20097;-71
2021/04/03 01:18:10;;;;;;;10.70;6.05;;;;;;;;;;5070446;28;20052;-70
2021/04/03 01:20:43;;;;;;;7.65;5.35;;;;;;;;;;5070394;28;20113;-74
2021/04/03 01:23:20;;;;;;;9.15;5.28;;;;;;;;;;5071337;28;20045;-70
2021/04/03 01:25:53;;;;;;;8.82;5.70;;;;;;;;;;5065553;28;20127;-70
2021/04/03 01:28:40;;;;;;;10.30;6.15;;;;;;;;;;5070814;28;20082;-71
2021/04/03 01:31:09;;;;;;;9.85;5.57;;;;;;;;;;5065492;28;20120;-70
2021/04/03 01:33:38;;;;;;;11.10;6.10;;;;;;;;;;5072021;28;20132;-70
2021/04/03 01:36:11;;;;;;;10.18;5.32;;;;;;;;;;5070605;28;20495;-69
2021/04/03 01:38:41;;;;;;;11.50;5.95;;;;;;;;;;5070888;28;20128;-70
2021/04/03 01:41:10;;;;;;;10.07;5.72;;;;;;;;;;5070437;28;20087;-69
2021/04/03 01:43:40;;;;;;;9.82;5.75;;;;;;;;;;5070886;28;20487;-72
2021/04/03 01:46:09;;;;;;;10.20;6.10;;;;;;;;;;5067032;28;20159;-70
2021/04/03 01:48:37;;;;;;;11.25;5.25;;;;;;;;;;5069698;28;20072;-71
2021/04/03 01:51:05;;;;;;;9.00;5.13;;;;;;;;;;5066580;28;20056;-70
2021/04/03 01:53:33;;;;;;;7.50;5.20;;;;;;;;;;5065773;28;20084;-68
2021/04/03 01:56:02;;;;;;;10.43;5.72;;;;;;;;;;5071163;28;20060;-70
2021/04/03 01:58:30;;;;;;;9.95;5.10;;;;;;;;;;5070094;28;20075;-68
2021/04/03 02:00:58;;;;;;;10.65;5.15;;;;;;;;;;5070096;28;20091;-69
2021/04/03 02:03:27;;;;;;;10.70;5.35;;;;;;;;;;5070510;28;20059;-69
2021/04/03 02:05:56;;;;;;;11.20;5.25;;;;;;;;;;5068403;28;20059;-68
2021/04/03 02:08:23;;;;;;;9.85;5.85;;;;;;;;;;5069283;28;20058;-72
2021/04/03 02:10:51;;;;;;;9.77;5.30;;;;;;;;;;5068063;28;20060;-69
2021/04/03 02:13:19;;;;;;;11.68;5.35;;;;;;;;;;5055143;28;20076;-70
2021/04/03 02:15:47;;;;;;;8.98;5.65;;;;;;;;;;5066226;28;20131;-69
2021/04/03 02:18:17;;;;;;;9.98;5.20;;;;;;;;;;5074431;28;20127;-70
2021/04/03 02:20:45;;;;;;;10.30;5.00;;;;;;;;;;5067885;28;20123;-71
2021/04/03 02:23:13;;;;;;;13.80;5.80;;;;;;;;;;5062019;28;20088;-71
2021/04/03 02:25:40;;;;;;;10.38;5.38;;;;;;;;;;5074903;28;20040;-70
2021/04/03 02:28:07;;;;;;;9.60;5.38;;;;;;;;;;5088403;28;20070;-71
2021/04/03 02:30:35;;;;;;;10.73;5.20;;;;;;;;;;5069563;28;20040;-70
2021/04/03 02:33:02;;;;;;;10.35;5.38;;;;;;;;;;5070058;28;20697;-69
2021/04/03 02:35:30;;;;;;;13.32;5.63;;;;;;;;;;5069011;28;20155;-69
2021/04/03 02:37:59;;;;;;;9.55;5.28;;;;;;;;;;5069420;28;20082;-68
2021/04/03 02:40:28;;;;;;;10.82;5.80;;;;;;;;;;5070813;28;20532;-69
2021/04/03 02:42:59;;;;;;;13.02;6.13;;;;;;;;;;5052490;28;20136;-71
2021/04/03 02:45:26;;;;;;;9.07;4.70;;;;;;;;;;5065316;28;20524;-70
2021/04/03 02:47:58;;;;;;;10.80;5.15;;;;;;;;;;5070296;28;20151;-69
2021/04/03 02:50:28;;;;;;;8.07;4.88;;;;;;;;;;5070926;28;20137;-69
2021/04/03 02:52:56;;;;;;;8.90;4.75;;;;;;;;;;5071010;28;20096;-74
2021/04/03 02:55:29;;;;;;;7.78;4.68;;;;;;;;;;5068886;28;20088;-69
2021/04/03 02:57:58;;;;;;;10.63;4.43;;;;;;;;;;5069997;28;20129;-69
2021/04/03 03:00:26;;;;;;;7.32;4.53;;;;;;;;;;5069188;28;20135;-69
2021/04/03 03:02:54;;;;;;;8.27;4.05;;;;;;;;;;5067688;28;20095;-68
2021/04/03 03:05:21;;;;;;;10.88;4.22;;;;;;;;;;5071174;28;20044;-70
2021/04/03 03:07:49;;;;;;;9.18;4.13;;;;;;;;;;5069005;28;20055;-69
2021/04/03 03:10:17;;;;;;;12.40;4.18;;;;;;;;;;5070737;28;20135;-70
2021/04/03 03:12:46;;;;;;;7.13;4.30;;;;;;;;;;5069957;28;20146;-69
2021/04/03 03:15:14;;;;;;;10.68;3.97;;;;;;;;;;5071027;28;20127;-72
2021/04/03 03:17:43;;;;;;;9.57;4.40;;;;;;;;;;5069994;28;20080;-72
2021/04/03 03:20:11;;;;;;;10.18;4.32;;;;;;;;;;5071046;28;20080;-70
2021/04/03 03:22:38;;;;;;;8.15;3.85;;;;;;;;;;5070672;28;20141;-71
2021/04/03 03:25:07;;;;;;;9.35;4.00;;;;;;;;;;5070345;28;20605;-69
2021/04/03 03:27:34;;;;;;;12.75;3.90;;;;;;;;;;5069917;28;20132;-69
2021/04/03 03:30:03;;;;;;;10.38;4.18;;;;;;;;;;5069912;28;20071;-69
2021/04/03 03:32:30;;;;;;;7.10;4.20;;;;;;;;;;5070947;28;20127;-70
2021/04/03 03:34:58;;;;;;;6.25;3.75;;;;;;;;;;5070933;28;20181;-72
2021/04/03 03:37:26;;;;;;;9.65;3.90;;;;;;;;;;5070122;28;20456;-71
2021/04/03 03:39:53;;;;;;;7.18;3.70;;;;;;;;;;5070492;28;20553;-70
2021/04/03 03:42:21;;;;;;;16.08;4.93;;;;;;;;;;5069761;28;20136;-69
2021/04/03 03:44:49;;;;;;;8.18;4.10;;;;;;;;;;5070113;28;20060;-70
2021/04/03 03:47:17;;;;;;;10.77;4.10;;;;;;;;;;5061207;28;20090;-70
2021/04/03 03:49:45;;;;;;;8.85;4.47;;;;;;;;;;5070422;28;20132;-71
2021/04/03 03:52:12;;;;;;;13.93;3.67;;;;;;;;;;5069585;28;20072;-69
2021/04/03 03:54:39;;;;;;;11.13;4.05;;;;;;;;;;5068981;28;20402;-70
2021/04/03 03:57:07;;;;;;;8.65;4.43;;;;;;;;;;5070133;28;20144;-69
2021/04/03 03:59:34;;;;;;;8.00;3.60;;;;;;;;;;5070058;28;20131;-69
2021/04/03 04:02:01;;;;;;;9.60;3.97;;;;;;;;;;5069766;28;20076;-70
2021/04/03 04:04:29;;;;;;;10.45;4.82;;;;;;;;;;5070353;28;20117;-70
2021/04/03 04:06:57;;;;;;;10.40;4.40;;;;;;;;;;5069598;28;20049;-70
2021/04/03 04:09:25;;;;;;;6.88;4.55;;;;;;;;;;5070763;28;20044;-70
2021/04/03 04:11:53;;;;;;;8.70;4.25;;;;;;;;;;5069273;28;20569;-69
2021/04/03 04:14:20;;;;;;;5.90;4.35;;;;;;;;;;5069869;28;20523;-69
2021/04/03 04:16:48;;;;;;;17.40;5.47;;;;;;;;;;5070979;28;20048;-68
2021/04/03 04:19:15;;;;;;;10.27;4.38;;;;;;;;;;5069822;28;20127;-69
2021/04/03 04:21:43;;;;;;;10.07;5.28;;;;;;;;;;5070507;28;20097;-71
2021/04/03 04:24:10;;;;;;;11.65;5.07;;;;;;;;;;5070484;28;20496;-69
2021/04/03 04:26:38;;;;;;;9.32;4.88;;;;;;;;;;5069899;28;20050;-69
2021/04/03 04:29:05;;;;;;;10.82;5.15;;;;;;;;;;5068614;28;20142;-69
2021/04/03 04:31:32;;;;;;;11.55;6.03;;;;;;;;;;5068666;28;20198;-72
2021/04/03 04:33:59;;;;;;;9.27;5.57;;;;;;;;;;5070567;28;20071;-74
2021/04/03 04:36:27;;;;;;;10.00;4.82;;;;;;;;;;5070039;28;20044;-69
2021/04/03 04:39:00;;;;;;;10.82;5.55;;;;;;;;;;5069804;28;20048;-70
2021/04/03 04:41:27;;;;;;;11.15;4.78;;;;;;;;;;5069046;28;20080;-69
2021/04/03 04:43:55;;;;;;;11.77;5.25;;;;;;;;;;5064896;28;20062;-74
2021/04/03 04:46:22;;;;;;;8.15;4.20;;;;;;;;;;5064242;28;20044;-69
2021/04/03 04:48:50;;;;;;;9.32;4.93;;;;;;;;;;5067916;28;20143;-70
2021/04/03 04:51:18;;;;;;;8.25;4.65;;;;;;;;;;5068585;28;20052;-73
2021/04/03 04:53:46;;;;;;;13.93;7.03;;;;;;;;;;5071045;28;20539;-74
2021/04/03 04:56:15;;;;;;;12.93;5.05;;;;;;;;;;5069500;28;20137;-71
2021/04/03 04:58:42;;;;;;;12.07;4.60;;;;;;;;;;5068323;28;20053;-72
2021/04/03 05:01:09;;;;;;;11.40;4.80;;;;;;;;;;5069860;28;20391;-70
2021/04/03 05:03:36;;;;;;;10.70;5.82;;;;;;;;;;5072515;28;20147;-70
2021/04/03 05:06:04;;;;;;;9.98;5.28;;;;;;;;;;5072303;28;20171;-69
2021/04/03 05:08:31;;;;;;;9.35;4.63;;;;;;;;;;5071210;28;20088;-69
2021/04/03 05:10:59;;;;;;;15.57;5.22;;;;;;;;;;5071530;28;20128;-72
2021/04/03 05:13:27;;;;;;;10.73;4.53;;;;;;;;;;5071781;28;20577;-71
2021/04/03 05:15:57;;;;;;;15.68;5.20;;;;;;;;;;5071854;28;20086;-71
2021/04/03 05:18:24;;;;;;;12.05;5.07;;;;;;;;;;5071327;28;20075;-70
2021/04/03 05:20:51;;;;;;;16.83;5.78;;;;;;;;;;5071768;28;20044;-71
2021/04/03 05:23:19;;;;;;;10.73;4.22;;;;;;;;;;5072219;28;20055;-72
2021/04/03 05:25:46;;;;;;;8.18;4.80;;;;;;;;;;5070845;28;20136;-70
2021/04/03 05:28:14;;;;;;;13.88;4.90;;;;;;;;;;5070963;28;20132;-70
2021/04/03 05:30:42;;;;;;;12.18;4.63;;;;;;;;;;5070957;28;20516;-70
2021/04/03 05:33:10;;;;;;;13.48;5.38;;;;;;;;;;5068803;28;20145;-70
2021/04/03 05:35:37;;;;;;;9.68;4.32;;;;;;;;;;5068480;28;20052;-71
2021/04/03 05:38:05;;;;;;;11.57;4.80;;;;;;;;;;5067790;28;20369;-70
2021/04/03 05:40:32;;;;;;;7.20;4.25;;;;;;;;;;5067684;28;20141;-72
2021/04/03 05:43:02;;;;;;;8.70;3.95;;;;;;;;;;5067965;28;20122;-74
2021/04/03 05:45:29;;;;;;;9.52;4.18;;;;;;;;;;5067557;28;20452;-74
2021/04/03 05:47:58;;;;;;;11.27;4.18;;;;;;;;;;5066092;28;20059;-72
2021/04/03 05:50:26;;;;;;;7.35;3.80;;;;;;;;;;5068511;28;20139;-70
2021/04/03 05:52:53;;;;;;;9.05;3.70;;;;;;;;;;5068553;28;20484;-72
2021/04/03 05:55:21;;;;;;;11.50;4.03;;;;;;;;;;5068436;28;20044;-71
2021/04/03 05:57:48;;;;;;;11.90;3.80;;;;;;;;;;5067111;28;20092;-70
2021/04/03 06:00:16;;;;;;;7.90;3.30;;;;;;;;;;5067009;28;20131;-71
2021/04/03 06:02:43;;;;;;;6.40;3.20;;;;;;;;;;5067452;28;20563;-73
2021/04/03 06:05:12;;;;;;;7.30;3.33;;;;;;;;;;5066618;28;20197;-70
2021/04/03 06:07:40;;;;;;;8.98;3.38;;;;;;;;;;5067666;28;20131;-71
2021/04/03 06:10:09;;;;;;;13.23;3.53;;;;;;;;;;5067528;28;20164;-70
2021/04/03 06:12:39;;;;;;;7.43;3.67;;;;;;;;;;5067568;28;20060;-72
2021/04/03 06:15:08;;;;;;;5.97;3.10;;;;;;;;;;5068228;28;20123;-69
2021/04/03 06:17:35;;;;;;;9.77;3.47;;;;;;;;;;5069231;28;20052;-72
2021/04/03 06:20:03;;;;;;;7.45;3.28;;;;;;;;;;5067223;28;20132;-72
2021/04/03 06:22:42;;;;;;;6.65;2.95;;;;;;;;;;5086512;28;20070;-70
2021/04/03 06:25:10;;;;;;;4.97;2.75;;;;;;;;;;5069210;28;20138;-71
2021/04/03 06:27:37;;;;;;;11.70;4.13;;;;;;;;;;5067321;28;20462;-69
2021/04/03 06:30:14;;;;;;;5.38;2.75;;;;;;;;;;5067756;28;20044;-70
2021/04/03 06:32:44;;;;;;;7.28;2.95;;;;;;;;;;5066548;28;20088;-70
2021/04/03 06:35:12;;;;;;;8.55;2.95;;;;;;;;;;5067007;28;20040;-69
2021/04/03 06:37:39;;;;;;;6.18;3.15;;;;;;;;;;5064258;28;20043;-70
2021/04/03 06:40:09;;;;;;;7.03;2.97;;;;;;;;;;5066170;28;20496;-70
2021/04/03 06:42:37;;;;;;;6.72;3.03;;;;;;;;;;5066970;28;20037;-70
2021/04/03 06:45:21;;;;;;;6.50;2.63;;;;;;;;;;5066786;28;20125;-73
2021/04/03 06:47:49;;;;;;;9.35;2.92;;;;;;;;;;5063817;28;20133;-71
2021/04/03 06:50:17;;;;;;;15.27;5.60;;;;;;;;;;5065697;28;20488;-73
2021/04/03 06:52:44;;;;;;;9.93;3.15;;;;;;;;;;5067090;28;20171;-72
2021/04/03 06:55:13;;;;;;;7.47;2.78;;;;;;;;;;5067350;28;20465;-70
2021/04/03 06:57:41;;;;;;;6.45;3.17;;;;;;;;;;5066396;28;20083;-70
2021/04/03 07:00:10;;;;;;;6.82;3.05;;;;;;;;;;5066618;28;20539;-69
2021/04/03 07:02:41;;;;;;;7.95;3.30;;;;;;;;;;5066696;28;20088;-71
2021/04/03 07:05:10;;;;;;;9.27;3.95;;;;;;;;;;5066574;28;20194;-70
2021/04/03 07:07:38;;;;;;;5.90;2.72;;;;;;;;;;5065823;28;20131;-71
2021/04/03 07:10:06;;;;;;;9.30;3.70;;;;;;;;;;5066424;28;20485;-71
2021/04/03 07:12:35;;;;;;;6.80;3.22;;;;;;;;;;5066432;28;20072;-71
2021/04/03 07:15:03;;;;;;;5.47;3.10;;;;;;;;;;5069561;28;20087;-71
2021/04/03 07:17:31;;;;;;;4.53;2.63;;;;;;;;;;5069480;28;20040;-71
2021/04/03 07:19:59;;;;;;;7.45;3.10;;;;;;;;;;5069137;28;20062;-71
2021/04/03 07:22:26;;;;;;;5.28;2.75;;;;;;;;;;5070222;28;20080;-72
2021/04/03 07:24:54;;;;;;;4.57;2.90;;;;;;;;;;5069050;28;20046;-71
2021/04/03 07:27:21;;;;;;;6.63;3.42;;;;;;;;;;5070214;28;20458;-71
2021/04/03 07:29:50;;;;;;;5.18;3.17;;;;;;;;;;5069579;28;20127;-73
2021/04/03 07:32:33;;;;;;;5.82;3.20;;;;;;;;;;5065078;28;20041;-71
2021/04/03 07:35:00;;;;;;;5.55;3.95;;;;;;;;;;5067678;28;20124;-72
2021/04/03 07:37:35;;;;;;;8.25;3.30;;;;;;;;;;5064905;28;20136;-71
2021/04/03 07:40:03;;;;;;;7.85;3.53;;;;;;;;;;5066212;28;20778;-72
2021/04/03 07:42:37;;;;;;;6.50;3.33;;;;;;;;;;5064123;28;20152;-71
2021/04/03 07:45:06;;;;;;;10.30;3.57;;;;;;;;;;5065975;28;20130;-70
2021/04/03 07:47:47;;;;;;;7.28;2.80;;;;;;;;;;5065794;28;20504;-73
2021/04/03 07:50:49;;;;;;;8.52;3.20;;;;;;;;;;5065073;28;20094;-71
2021/04/03 07:53:37;;;;;;;5.68;2.92;;;;;;;;;;5065362;28;20045;-71
2021/04/03 07:56:06;;;;;;;10.30;3.10;;;;;;;;;;5066541;28;20084;-70
2021/04/03 07:58:35;;;;;;;11.85;3.92;;;;;;;;;;5065360;28;20052;-72
2021/04/03 08:01:23;;;;;;;9.30;3.00;;;;;;;;;;5066107;28;20055;-74
2021/04/03 08:03:58;;;;;;;8.27;3.20;;;;;;;;;;5065630;28;20082;-71
2021/04/03 08:06:33;;;;;;;11.13;3.40;;;;;;;;;;5065598;28;20551;-71
2021/04/03 08:09:03;;;;;;;8.35;2.88;;;;;;;;;;5065266;28;20074;-71
2021/04/03 08:11:31;;;;;;;5.22;2.50;;;;;;;;;;5066089;28;20052;-70
2021/04/03 08:13:59;;;;;;;8.25;3.55;;;;;;;;;;5066048;28;20131;-74
2021/04/03 08:16:28;;;;;;;4.55;2.65;;;;;;;;;;5071067;28;20066;-71
2021/04/03 08:18:57;;;;;;;5.88;2.58;;;;;;;;;;5064881;28;20056;-70
2021/04/03 08:21:25;;;;;;;6.55;2.80;;;;;;;;;;5057097;28;20136;-72
2021/04/03 08:23:54;;;;;;;8.07;3.40;;;;;;;;;;5065340;28;20045;-71
2021/04/03 08:26:24;;;;;;;6.15;3.30;;;;;;;;;;5065939;28;20167;-71
2021/04/03 08:28:52;;;;;;;6.95;2.83;;;;;;;;;;5063835;28;20049;-75
2021/04/03 08:31:20;;;;;;;4.72;2.97;;;;;;;;;;5065719;28;20049;-71
2021/04/03 08:33:48;;;;;;;7.75;3.33;;;;;;;;;;5064163;28;20127;-72
2021/04/03 08:36:16;;;;;;;8.65;3.38;;;;;;;;;;5066369;28;20464;-71
2021/04/03 08:38:44;;;;;;;9.45;3.90;;;;;;;;;;5069581;28;20155;-72
2021/04/03 08:41:12;;;;;;;8.80;3.60;;;;;;;;;;5069632;28;20051;-73
2021/04/03 08:43:40;;;;;;;9.23;3.45;;;;;;;;;;5073468;28;20037;-70
2021/04/03 08:46:09;;;;;;;7.88;3.38;;;;;;;;;;5072236;28;20395;-70
2021/04/03 08:48:37;;;;;;;6.82;3.38;;;;;;;;;;5070448;28;20131;-70
2021/04/03 08:51:05;;;;;;;8.40;4.07;;;;;;;;;;5066911;28;20045;-74
2021/04/03 08:53:37;;;;;;;9.07;3.72;;;;;;;;;;5068435;28;20097;-70
2021/04/03 08:56:05;;;;;;;6.13;3.25;;;;;;;;;;5069042;28;20052;-72
2021/04/03 08:58:32;;;;;;;8.65;4.00;;;;;;;;;;5068670;28;20052;-71
2021/04/03 09:01:01;;;;;;;9.43;3.75;;;;;;;;;;5068421;28;20119;-72
2021/04/03 09:03:28;;;;;;;8.15;3.20;;;;;;;;;;5069036;28;20147;-70
2021/04/03 09:05:56;;;;;;;6.05;3.10;;;;;;;;;;5068870;28;20063;-70
2021/04/03 09:08:25;;;;;;;6.68;3.47;;;;;;;;;;5068174;28;20055;-71
2021/04/03 09:10:53;;;;;;;8.60;3.25;;;;;;;;;;5069249;28;20136;-72
2021/04/03 09:13:20;;;;;;;11.13;3.42;;;;;;;;;;5069448;28;20432;-73
2021/04/03 09:15:48;;;;;;;8.43;3.35;;;;;;;;;;5069052;28;20467;-72
2021/04/03 09:18:17;;;;;;;8.77;3.40;;;;;;;;;;5068524;28;20125;-71
2021/04/03 09:20:49;;;;;;;7.78;3.10;;;;;;;;;;5069253;28;20056;-71
2021/04/03 09:23:23;;;;;;;5.72;3.22;;;;;;;;;;5069326;28;20051;-72
2021/04/03 09:26:03;;;;;;;10.45;3.10;;;;;;;;;;5069042;28;20122;-70
2021/04/03 09:28:38;;;;;;;7.00;2.90;;;;;;;;;;5067766;28;20047;-70
2021/04/03 09:31:07;;;;;;;8.93;3.50;;;;;;;;;;5068415;28;20106;-71
2021/04/03 09:33:44;;;;;;;8.68;3.65;;;;;;;;;;5068312;28;20050;-72
2021/04/03 09:36:13;;;;;;;6.93;3.47;;;;;;;;;;5067441;28;20046;-73
2021/04/03 09:38:41;;;;;;;7.00;2.85;;;;;;;;;;5057662;28;20136;-70
2021/04/03 09:41:21;;;;;;;7.07;3.00;;;;;;;;;;5057841;28;20142;-70
2021/04/03 09:43:48;;;;;;;8.10;3.13;;;;;;;;;;5065469;28;20055;-70
2021/04/03 09:46:16;;;;;;;6.82;2.25;;;;;;;;;;5064502;28;20106;-73
2021/04/03 09:48:44;;;;;;;5.45;2.83;;;;;;;;;;5067863;28;20118;-71
2021/04/03 09:51:12;;;;;;;4.47;2.83;;;;;;;;;;5066758;28;20053;-72
2021/04/03 09:53:40;;;;;;;7.25;3.05;;;;;;;;;;5069329;28;20252;-70
2021/04/03 09:56:07;;;;;;;6.05;2.92;;;;;;;;;;5070960;28;20451;-69
2021/04/03 09:58:35;;;;;;;8.85;2.97;;;;;;;;;;5067787;28;20098;-70
2021/04/03 10:01:04;;;;;;;10.57;2.67;;;;;;;;;;5070705;28;20102;-68
2021/04/03 10:03:32;;;;;;;9.85;2.80;;;;;;;;;;5070819;28;20379;-69
2021/04/03 10:06:02;;;;;;;5.90;2.38;;;;;;;;;;5070537;28;20045;-73
2021/04/03 10:08:29;;;;;;;8.18;2.85;;;;;;;;;;5070275;28;20059;-69
2021/04/03 10:10:57;;;;;;;6.75;2.85;;;;;;;;;;5073898;28;20097;-69
2021/04/03 10:13:24;;;;;;;4.43;2.05;;;;;;;;;;5070632;28;20098;-70
2021/04/03 10:15:51;;;;;;;5.22;2.40;;;;;;;;;;5071363;28;20040;-70
2021/04/03 10:18:19;;;;;;;5.22;2.20;;;;;;;;;;5070197;28;20040;-70
2021/04/03 10:20:46;;;;;;;7.50;2.40;;;;;;;;;;5070944;28;20059;-70
2021/04/03 10:23:15;;;;;;;4.28;2.50;;;;;;;;;;5069555;28;20049;-71
2021/04/03 10:25:42;;;;;;;5.35;2.60;;;;;;;;;;5070764;28;20144;-70
2021/04/03 10:28:10;;;;;;;4.63;2.38;;;;;;;;;;5069699;28;20041;-70
2021/04/03 10:30:37;;;;;;;4.32;2.50;;;;;;;;;;5068494;28;20484;-69
2021/04/03 10:33:05;;;;;;;5.75;2.60;;;;;;;;;;5068339;28;20045;-70
2021/04/03 10:35:33;;;;;;;5.40;2.25;;;;;;;;;;5071041;28;20044;-69
2021/04/03 10:38:00;;;;;;;3.88;2.13;;;;;;;;;;5068552;28;20076;-72
2021/04/03 10:40:29;;;;;;;4.32;2.13;;;;;;;;;;5071156;28;20136;-70
2021/04/03 10:42:56;;;;;;;5.63;2.63;;;;;;;;;;5070605;28;20126;-71
2021/04/03 10:45:24;;;;;;;4.32;2.42;;;;;;;;;;5070805;28;20478;-71
2021/04/03 10:47:52;;;;;;;8.38;3.22;;;;;;;;;;5070439;28;20063;-70
2021/04/03 10:50:19;;;;;;;5.50;2.60;;;;;;;;;;5069031;28;20544;-71
2021/04/03 10:52:47;;;;;;;7.78;2.75;;;;;;;;;;5061881;28;20056;-72
2021/04/03 10:55:18;;;;;;;5.15;2.17;;;;;;;;;;5070956;28;20071;-71
2021/04/03 10:57:47;;;;;;;6.53;2.67;;;;;;;;;;5069874;28;20110;-72
2021/04/03 11:00:15;;;;;;;3.15;2.10;;;;;;;;;;5057862;28;20055;-71
2021/04/03 11:02:43;;;;;;;5.47;2.20;;;;;;;;;;5069127;28;20076;-70
2021/04/03 11:05:11;;;;;;;3.28;2.00;;;;;;;;;;5070224;28;20084;-70
2021/04/03 11:07:38;;;;;;;4.97;2.22;;;;;;;;;;5070053;28;20041;-70
2021/04/03 11:10:06;;;;;;;8.70;2.58;;;;;;;;;;5070391;28;20048;-71
2021/04/03 11:12:33;;;;;;;4.60;2.60;;;;;;;;;;5070715;28;20135;-70
2021/04/03 11:15:02;;;;;;;4.50;2.17;;;;;;;;;;5069812;28;20090;-70
2021/04/03 11:17:29;;;;;;;4.80;2.40;;;;;;;;;;5068780;28;20048;-70
2021/04/03 11:19:57;;;;;;;5.95;2.40;;;;;;;;;;5069792;28;20108;-71
2021/04/03 11:22:25;;;;;;;3.85;2.30;;;;;;;;;;5070166;28;20438;-71
2021/04/03 11:24:52;;;;;;;6.72;2.72;;;;;;;;;;5069526;28;20048;-71
2021/04/03 11:27:19;;;;;;;4.90;2.20;;;;;;;;;;5070208;28;20045;-72
2021/04/03 11:29:47;;;;;;;6.57;2.17;;;;;;;;;;5069471;28;20045;-72
2021/04/03 11:32:15;;;;;;;3.10;2.20;;;;;;;;;;5068456;28;20617;-71
2021/04/03 11:34:43;;;;;;;6.97;2.53;;;;;;;;;;5069819;28;20055;-71
2021/04/03 11:37:10;;;;;;;4.75;2.35;;;;;;;;;;5069204;28;20565;-71
2021/04/03 11:39:38;;;;;;;5.10;2.17;;;;;;;;;;5069066;28;20488;-70
2021/04/03 11:42:06;;;;;;;3.45;1.83;;;;;;;;;;5073745;28;20051;-73
2021/04/03 11:44:33;;;;;;;8.57;2.50;;;;;;;;;;5076127;28;20051;-70
2021/04/03 11:47:01;;;;;;;3.78;2.50;;;;;;;;;;5067884;28;20048;-72
2021/04/03 11:49:30;;;;;;;6.03;2.42;;;;;;;;;;5069331;28;20438;-69
2021/04/03 11:51:57;;;;;;;4.20;2.30;;;;;;;;;;5068842;28;20123;-69
2021/04/03 11:54:24;;;;;;;4.05;2.50;;;;;;;;;;5069316;28;20060;-70
2021/04/03 11:56:52;;;;;;;3.58;2.42;;;;;;;;;;5068456;28;20067;-70
2021/04/03 11:59:19;;;;;;;2.97;2.00;;;;;;;;;;5068334;28;20068;-69
2021/04/03 12:01:46;;;;;;;4.15;1.85;;;;;;;;;;5066758;28;20123;-69
2021/04/03 12:04:14;;;;;;;4.30;1.98;;;;;;;;;;5069082;28;20095;-75
2021/04/03 12:06:42;;;;;;;3.72;1.90;;;;;;;;;;5067261;28;20128;-70
2021/04/03 12:09:09;;;;;;;5.13;2.10;;;;;;;;;;5065373;28;20084;-68
2021/04/03 12:11:36;;;;;;;3.92;1.92;;;;;;;;;;5075536;28;20141;-70
2021/04/03 12:14:04;;;;;;;4.57;2.13;;;;;;;;;;5077536;28;20072;-68
2021/04/03 12:16:33;;;;;;;5.25;2.20;;;;;;;;;;5074926;28;20055;-70
2021/04/03 12:19:01;;;;;;;3.60;1.85;;;;;;;;;;5075520;28;20041;-71
2021/04/03 12:21:29;;;;;;;7.55;2.38;;;;;;;;;;5076527;28;20127;-69
2021/04/03 12:23:57;;;;;;;4.15;2.00;;;;;;;;;;5075639;28;20135;-69
2021/04/03 12:26:25;;;;;;;6.57;2.78;;;;;;;;;;5092666;28;20052;-70
2021/04/03 12:28:53;;;;;;;4.80;2.20;;;;;;;;;;5077125;28;20115;-68
2021/04/03 12:31:20;;;;;;;7.13;2.40;;;;;;;;;;5072793;28;20048;-69
2021/04/03 12:33:47;;;;;;;5.38;2.30;;;;;;;;;;5075527;28;20139;-70
2021/04/03 12:36:15;;;;;;;4.13;2.30;;;;;;;;;;5079072;28;20048;-69
2021/04/03 12:38:42;;;;;;;6.50;2.47;;;;;;;;;;5075632;28;20044;-71
2021/04/03 12:41:10;;;;;;;4.00;2.08;;;;;;;;;;5076519;28;20404;-68
2021/04/03 12:43:38;;;;;;;3.65;1.80;;;;;;;;;;5071563;28;20488;-68
2021/04/03 12:46:05;;;;;;;5.18;2.00;;;;;;;;;;5072431;28;20530;-69
2021/04/03 12:48:33;;;;;;;2.85;1.75;;;;;;;;;;5074315;28;20076;-69
2021/04/03 12:51:02;;;;;;;3.00;1.65;;;;;;;;;;5075347;28;20500;-69
2021/04/03 12:53:30;;;;;;;2.90;1.50;;;;;;;;;;5075303;28;20048;-69
2021/04/03 12:55:58;;;;;;;2.88;1.45;;;;;;;;;;5075493;28;20055;-69
2021/04/03 12:58:26;;;;;;;3.30;1.60;;;;;;;;;;5071442;28;20647;-62
2021/04/03 13:00:53;;;;;;;7.32;1.95;;;;;;;;;;5074893;28;20051;-62
2021/04/03 13:03:21;;;;;;;3.25;1.60;;;;;;;;;;5074638;28;20086;-62
2021/04/03 13:05:48;;;;;;;4.13;1.80;;;;;;;;;;5074805;28;20088;-62
2021/04/03 13:08:16;;;;;;;3.67;2.00;;;;;;;;;;5073266;28;20068;-62
2021/04/03 13:10:43;;;;;;;5.53;2.55;;;;;;;;;;5075209;28;20550;-62
2021/04/03 13:13:11;;;;;;;8.88;2.35;;;;;;;;;;5075386;28;20045;-62
2021/04/03 13:15:39;;;;;;;4.50;2.17;;;;;;;;;;5075120;28;20129;-62
2021/04/03 13:18:07;;;;;;;4.80;2.58;;;;;;;;;;5074675;28;20554;-61
2021/04/03 13:20:35;;;;;;;4.75;2.03;;;;;;;;;;5073656;28;20044;-62
2021/04/03 13:23:04;;;;;;;5.55;1.90;;;;;;;;;;5071701;28;20051;-61
2021/04/03 13:25:32;;;;;;;3.75;1.85;;;;;;;;;;5071601;28;20040;-62
2021/04/03 13:27:59;;;;;;;3.13;1.90;;;;;;;;;;5069510;28;20127;-61
2021/04/03 13:30:27;;;;;;;7.03;2.40;;;;;;;;;;5067752;28;20055;-61
2021/04/03 13:32:55;;;;;;;3.50;1.85;;;;;;;;;;5072135;28;20055;-61
2021/04/03 13:35:23;;;;;;;5.00;2.22;;;;;;;;;;5072213;28;20499;-61
2021/04/03 13:37:51;;;;;;;4.07;2.35;;;;;;;;;;5071052;28;20044;-61
2021/04/03 13:40:19;;;;;;;3.92;2.00;;;;;;;;;;5072465;28;20135;-61
2021/04/03 13:42:48;;;;;;;3.35;1.63;;;;;;;;;;5071289;28;20151;-61
2021/04/03 13:45:16;;;;;;;5.63;1.63;;;;;;;;;;5070994;28;20127;-61
2021/04/03 13:47:43;;;;;;;7.22;2.25;;;;;;;;;;5070992;28;20125;-61
2021/04/03 13:50:12;;;;;;;3.58;1.88;;;;;;;;;;5072014;28;20452;-61
2021/04/03 13:52:39;;;;;;;3.40;2.00;;;;;;;;;;5071307;28;20055;-62
2021/04/03 13:55:07;;;;;;;7.00;2.20;;;;;;;;;;5071193;28;20060;-62
2021/04/03 13:57:34;;;;;;;4.13;2.40;;;;;;;;;;5070799;28;20131;-63
2021/04/03 14:00:02;;;;;;;3.88;2.00;;;;;;;;;;5064491;28;20817;-62
2021/04/03 14:02:29;;;;;;;4.15;2.13;;;;;;;;;;5072016;28;20131;-62
2021/04/03 14:04:56;;;;;;;5.65;2.25;;;;;;;;;;5069649;28;20515;-62
2021/04/03 14:07:25;;;;;;;3.55;2.38;;;;;;;;;;5070915;28;20556;-62
2021/04/03 14:09:52;;;;;;;4.22;1.67;;;;;;;;;;5068411;28;20068;-62
2021/04/03 14:12:20;;;;;;;3.30;1.75;;;;;;;;;;5071048;28;20094;-62
2021/04/03 14:14:47;;;;;;;4.57;1.92;;;;;;;;;;5072117;28;20083;-62
2021/04/03 14:17:14;;;;;;;6.07;2.00;;;;;;;;;;5070267;28;20087;-62
2021/04/03 14:19:42;;;;;;;7.20;2.25;;;;;;;;;;5077735;28;20381;-62
2021/04/03 14:22:10;;;;;;;5.95;2.30;;;;;;;;;;5071053;28;20055;-62
2021/04/03 14:24:38;;;;;;;4.10;2.28;;;;;;;;;;5070787;28;20046;-62
2021/04/03 14:27:07;;;;;;;4.82;2.53;;;;;;;;;;5065822;28;20055;-61
2021/04/03 14:29:34;;;;;;;8.55;2.33;;;;;;;;;;5067067;28;20040;-62
2021/04/03 14:32:02;;;;;;;5.93;3.17;;;;;;;;;;5067177;28;20050;-62
2021/04/03 14:34:31;;;;;;;4.55;2.58;;;;;;;;;;5077339;28;20064;-61
2021/04/03 14:36:58;;;;;;;4.28;2.30;;;;;;;;;;5067728;28;20683;-61
2021/04/03 14:39:25;;;;;;;4.82;2.50;;;;;;;;;;5066229;28;20467;-62
2021/04/03 14:41:53;;;;;;;11.48;3.03;;;;;;;;;;5066155;28;20044;-62
2021/04/03 14:44:21;;;;;;;8.75;2.90;;;;;;;;;;5067258;28;20489;-62
2021/04/03 14:46:48;;;;;;;5.30;2.15;;;;;;;;;;5066613;28;20056;-62
2021/04/03 14:49:16;;;;;;;5.75;2.13;;;;;;;;;;5066631;28;20593;-62